Time;durP1;ratioP1;P1;durP2;ratioP2;P2;SDS_P1;SDS_P2;PMS_P1;PMS_P2;Temp;Humidity;BMP_temperature;BMP_pressure;BME280_temperature;BME280_humidity;BME280_pressure;Samples;Min_cycle;Max_cycle;Signal;HPM_P1;HPM_P2
2022/10/08 00:01:30;;;;;;;7.30;6.57;;;;;;;;;;5090959;28;20239;-69
2022/10/08 00:03:57;;;;;;;9.82;6.80;;;;;;;;;;5091350;28;20197;-69
2022/10/08 00:06:24;;;;;;;9.40;6.63;;;;;;;;;;5090724;28;20615;-69
2022/10/08 00:08:53;;;;;;;11.00;6.82;;;;;;;;;;5091264;28;20201;-69
2022/10/08 00:11:22;;;;;;;7.43;6.72;;;;;;;;;;5090552;28;20197;-70
2022/10/08 00:13:50;;;;;;;6.93;6.28;;;;;;;10.77;nan;95890.56;5091194;28;20262;-69
2022/10/08 00:16:18;;;;;;;6.35;5.75;;;;;;;;;;5090783;28;20672;-69
2022/10/08 00:18:46;;;;;;;5.38;4.90;;;;;;;;;;5090780;28;20562;-69
2022/10/08 00:21:15;;;;;;;9.82;5.82;;;;;;;;;;5090945;28;20718;-69
2022/10/08 00:23:41;;;;;;;6.75;5.00;;;;;;;;;;5091031;28;20197;-69
2022/10/08 00:26:10;;;;;;;6.45;5.95;;;;;;;;;;5090824;28;20197;-69
2022/10/08 00:28:37;;;;;;;9.60;6.00;;;;;;;;;;5091116;28;20201;-69
2022/10/08 00:31:08;;;;;;;13.80;6.05;;;;;;;;;;5090963;28;20213;-69
2022/10/08 00:33:35;;;;;;;7.28;6.40;;;;;;;;;;5090343;28;20237;-69
2022/10/08 00:36:01;;;;;;;8.38;6.10;;;;;;;;;;5089218;28;20240;-69
2022/10/08 00:38:28;;;;;;;11.85;6.78;;;;;;;;;;5090666;28;20671;-68
2022/10/08 00:40:54;;;;;;;10.57;7.20;;;;;;;;;;5090535;28;20772;-69
2022/10/08 00:43:36;;;;;;;13.05;8.35;;;;;;;;;;5090836;28;20229;-68
2022/10/08 00:46:04;;;;;;;9.35;7.97;;;;;;;;;;5090773;28;20197;-69
2022/10/08 00:48:31;;;;;;;8.30;7.50;;;;;;;;;;5090952;28;20197;-69
2022/10/08 00:50:57;;;;;;;10.80;7.93;;;;;;;;;;5089978;28;20679;-69
2022/10/08 00:53:24;;;;;;;12.63;8.15;;;;;;;;;;5088927;28;20198;-69
2022/10/08 00:55:50;;;;;;;10.00;8.55;;;;;;;;;;5088606;28;20627;-69
2022/10/08 00:58:19;;;;;;;7.95;7.25;;;;;;;;;;5089005;28;20202;-68
2022/10/08 01:00:46;;;;;;;9.20;7.63;;;;;;;10.50;nan;95856.41;5089033;28;20207;-69
2022/10/08 01:03:14;;;;;;;8.63;7.70;;;;;;;;;;5088845;28;20194;-70
2022/10/08 01:05:46;;;;;;;14.20;7.60;;;;;;;;;;5091920;28;20251;-69
2022/10/08 01:08:22;;;;;;;8.88;7.65;;;;;;;10.59;nan;95829.97;5094577;28;20200;-69
2022/10/08 01:10:53;;;;;;;11.23;7.93;;;;;;;;;;5094129;28;20740;-69
2022/10/08 01:13:24;;;;;;;9.10;8.00;;;;;;;;;;5093909;28;20671;-69
2022/10/08 01:15:55;;;;;;;7.45;6.85;;;;;;;;;;5094056;28;20202;-68
2022/10/08 01:18:26;;;;;;;9.18;7.70;;;;;;;;;;5094456;28;20251;-69
2022/10/08 01:20:58;;;;;;;9.15;7.60;;;;;;;;;;5094217;28;20197;-69
2022/10/08 01:23:29;;;;;;;10.23;7.00;;;;;;;;;;5093908;28;20262;-69
2022/10/08 01:25:57;;;;;;;9.00;7.35;;;;;;;;;;5093942;28;20635;-69
2022/10/08 01:28:28;;;;;;;10.15;7.57;;;;;;;;;;5094110;28;20266;-69
2022/10/08 01:30:57;;;;;;;7.75;6.57;;;;;;;;;;5094010;28;20198;-69
2022/10/08 01:33:27;;;;;;;8.00;6.07;;;;;;;;;;5093582;28;20233;-69
2022/10/08 01:35:58;;;;;;;7.15;6.47;;;;;;;10.01;nan;95815.84;5093514;28;20740;-69
2022/10/08 01:38:26;;;;;;;7.40;6.20;;;;;;;;;;5093864;28;20226;-69
2022/10/08 01:40:57;;;;;;;6.50;5.88;;;;;;;;;;5093464;28;20247;-69
2022/10/08 01:43:27;;;;;;;9.43;6.05;;;;;;;;;;5093811;28;20198;-69
2022/10/08 01:45:55;;;;;;;6.78;6.20;;;;;;;;;;5093550;28;20198;-69
2022/10/08 01:48:23;;;;;;;10.45;6.47;;;;;;;;;;5093514;28;20672;-69
2022/10/08 01:50:52;;;;;;;7.00;6.30;;;;;;;;;;5093632;28;20198;-69
2022/10/08 01:53:19;;;;;;;7.13;6.38;;;;;;;;;;5093468;28;20225;-70
2022/10/08 01:55:48;;;;;;;8.30;6.90;;;;;;;;;;5093541;28;20193;-69
2022/10/08 01:58:16;;;;;;;6.90;6.20;;;;;;;;;;5093492;28;20275;-69
2022/10/08 02:00:45;;;;;;;11.82;7.30;;;;;;;;;;5093468;28;20202;-68
2022/10/08 02:03:12;;;;;;;7.55;6.75;;;;;;;;;;5093044;28;20198;-68
2022/10/08 02:05:41;;;;;;;7.63;6.68;;;;;;;;;;5092676;28;20194;-69
2022/10/08 02:08:07;;;;;;;6.68;5.97;;;;;;;;;;5091336;28;20209;-69
2022/10/08 02:10:33;;;;;;;7.82;6.07;;;;;;;;;;5091227;28;20223;-69
2022/10/08 02:13:00;;;;;;;11.45;6.43;;;;;;;;;;5091386;28;20619;-69
2022/10/08 02:15:32;;;;;;;6.88;6.28;;;;;;;;;;5091686;28;20259;-68
2022/10/08 02:18:06;;;;;;;7.05;6.35;;;;;;;;;;5091570;28;20214;-70
2022/10/08 02:20:35;;;;;;;6.78;6.18;;;;;;;;;;5091888;28;20201;-69
2022/10/08 02:23:03;;;;;;;10.15;5.75;;;;;;;;;;5092892;28;20262;-69
2022/10/08 02:25:32;;;;;;;9.70;6.20;;;;;;;;;;5092836;28;20671;-69
2022/10/08 02:28:05;;;;;;;7.28;6.68;;;;;;;;;;5092510;28;20771;-69
2022/10/08 02:30:34;;;;;;;9.18;6.95;;;;;;;;;;5093067;28;20255;-69
2022/10/08 02:33:05;;;;;;;12.02;7.28;;;;;;;;;;5092518;28;20229;-69
2022/10/08 02:35:33;;;;;;;10.27;6.65;;;;;;;;;;5092583;28;20624;-69
2022/10/08 02:38:01;;;;;;;6.57;6.07;;;;;;;;;;5092574;28;20286;-69
2022/10/08 02:40:30;;;;;;;9.98;6.65;;;;;;;;;;5092362;28;20232;-69
2022/10/08 02:43:00;;;;;;;11.00;6.88;;;;;;;;;;5092422;28;20214;-70
2022/10/08 02:45:28;;;;;;;7.95;7.00;;;;;;;;;;5092744;28;20198;-70
2022/10/08 02:47:59;;;;;;;9.07;8.25;;;;;;;;;;5092676;28;20193;-68
2022/10/08 02:50:28;;;;;;;12.55;7.57;;;;;;;;;;5092647;28;20193;-69
2022/10/08 02:52:55;;;;;;;9.90;7.80;;;;;;;;;;5092040;28;20197;-69
2022/10/08 02:55:26;;;;;;;8.05;6.50;;;;;;;;;;5092430;28;20206;-69
2022/10/08 02:57:56;;;;;;;10.65;7.40;;;;;;;;;;5092041;28;20217;-69
2022/10/08 03:00:23;;;;;;;9.57;7.05;;;;;;;;;;5092343;28;20250;-70
2022/10/08 03:02:52;;;;;;;8.55;7.60;;;;;;;;;;5091860;28;20649;-68
2022/10/08 03:05:19;;;;;;;7.75;7.07;;;;;;;;;;5092194;28;20186;-68
2022/10/08 03:07:49;;;;;;;11.65;6.00;;;;;;;;;;5092213;28;20235;-68
2022/10/08 03:10:15;;;;;;;12.23;6.93;;;;;;;;;;5092239;28;20281;-69
2022/10/08 03:12:42;;;;;;;7.45;5.97;;;;;;;;;;5092286;28;20189;-70
2022/10/08 03:15:10;;;;;;;10.95;6.85;;;;;;;;;;5092502;28;20186;-70
2022/10/08 03:17:38;;;;;;;11.95;7.78;;;;;;;;;;5092021;28;20206;-70
2022/10/08 03:20:05;;;;;;;10.32;8.10;;;;;;;;;;5092055;28;20193;-69
2022/10/08 03:22:32;;;;;;;9.55;8.18;;;;;;;;;;5091552;28;20204;-70
2022/10/08 03:25:00;;;;;;;13.55;9.35;;;;;;;;;;5091939;28;20223;-70
2022/10/08 03:27:27;;;;;;;9.68;8.60;;;;;;;;;;5090835;28;20675;-69
2022/10/08 03:29:56;;;;;;;8.40;7.55;;;;;;;;;;5091843;28;20205;-69
2022/10/08 03:32:22;;;;;;;11.68;8.02;;;;;;;;;;5091276;28;20232;-69
2022/10/08 03:34:49;;;;;;;8.90;7.80;;;;;;;;;;5091700;28;20205;-69
2022/10/08 03:37:15;;;;;;;21.50;10.20;;;;;;;;;;5091540;28;20221;-70
2022/10/08 03:39:42;;;;;;;11.50;9.15;;;;;;;;;;5091793;28;20557;-70
2022/10/08 03:42:10;;;;;;;13.40;10.27;;;;;;;;;;5091023;28;20293;-68
2022/10/08 03:44:36;;;;;;;10.30;9.27;;;;;;;;;;5091893;28;20194;-69
2022/10/08 03:47:03;;;;;;;18.25;10.00;;;;;;;;;;5091056;28;20193;-69
2022/10/08 03:49:29;;;;;;;19.83;11.10;;;;;;;;;;5090031;28;20623;-69
2022/10/08 03:51:56;;;;;;;13.13;10.48;;;;;;;;;;5089518;28;20198;-69
2022/10/08 03:54:22;;;;;;;14.30;10.20;;;;;;;;;;5089594;28;20197;-70
2022/10/08 03:56:49;;;;;;;18.75;11.65;;;;;;;;;;5089633;28;20194;-69
2022/10/08 03:59:16;;;;;;;17.15;12.88;;;;;;;;;;5089600;28;20194;-68
2022/10/08 04:01:43;;;;;;;16.70;12.20;;;;;;;;;;5088959;28;20251;-70
2022/10/08 04:04:09;;;;;;;16.73;13.43;;;;;;;;;;5090171;28;20262;-70
2022/10/08 04:06:36;;;;;;;22.52;13.43;;;;;;;;;;5090964;28;20218;-70
2022/10/08 04:09:02;;;;;;;19.15;12.80;;;;;;;;;;5091021;28;20663;-70
2022/10/08 04:11:29;;;;;;;14.90;10.85;;;;;;;;;;5090775;28;20850;-71
2022/10/08 04:13:55;;;;;;;17.38;12.10;;;;;;;;;;5091241;28;20193;-70
2022/10/08 04:16:24;;;;;;;18.85;12.45;;;;;;;;;;5090906;28;20201;-71
2022/10/08 04:18:51;;;;;;;12.43;11.25;;;;;;;;;;5090821;28;20225;-71
2022/10/08 04:21:18;;;;;;;23.23;12.18;;;;;;;;;;5090790;28;20633;-71
2022/10/08 04:23:45;;;;;;;11.85;10.65;;;;;;;9.49;nan;95791.44;5090958;28;20198;-71
2022/10/08 04:26:13;;;;;;;16.40;11.35;;;;;;;;;;5091086;28;20251;-71
2022/10/08 04:28:40;;;;;;;23.98;11.38;;;;;;;;;;5090804;28;20247;-71
2022/10/08 04:31:08;;;;;;;20.65;11.70;;;;;;;;;;5090540;28;20736;-71
2022/10/08 04:33:36;;;;;;;16.20;10.90;;;;;;;;;;5090547;28;20286;-71
2022/10/08 04:36:06;;;;;;;17.27;10.85;;;;;;;;;;5090671;28;20631;-71
2022/10/08 04:38:33;;;;;;;17.33;11.88;;;;;;;;;;5091979;28;20225;-71
2022/10/08 04:41:03;;;;;;;22.02;12.13;;;;;;;;;;5094552;28;20679;-70
2022/10/08 04:43:30;;;;;;;16.27;11.68;;;;;;;;;;5094625;28;20648;-70
2022/10/08 04:45:56;;;;;;;19.55;11.93;;;;;;;;;;5094607;28;20247;-68
2022/10/08 04:48:23;;;;;;;22.08;12.63;;;;;;;;;;5094802;28;20197;-68
2022/10/08 04:50:55;;;;;;;24.90;13.15;;;;;;;;;;5094534;28;20197;-71
2022/10/08 04:53:21;;;;;;;37.38;15.65;;;;;;;;;;5094125;28;20296;-70
2022/10/08 04:55:48;;;;;;;31.30;16.60;;;;;;;;;;5093809;28;20202;-71
2022/10/08 04:58:14;;;;;;;30.55;13.52;;;;;;;;;;5093864;28;20279;-70
2022/10/08 05:00:41;;;;;;;28.00;13.68;;;;;;;;;;5094316;28;20194;-70
2022/10/08 05:03:07;;;;;;;20.15;12.63;;;;;;;;;;5093329;28;20254;-70
2022/10/08 05:05:33;;;;;;;24.75;12.38;;;;;;;;;;5093607;28;20194;-71
2022/10/08 05:08:01;;;;;;;44.78;25.67;;;;;;;;;;5093768;28;20776;-70
2022/10/08 05:10:28;;;;;;;24.48;15.85;;;;;;;;;;5093719;28;20198;-70
2022/10/08 05:12:54;;;;;;;36.60;17.95;;;;;;;;;;5093230;28;20258;-70
2022/10/08 05:15:21;;;;;;;56.42;28.33;;;;;;;;;;5093907;28;20354;-70
2022/10/08 05:17:47;;;;;;;51.25;25.77;;;;;;;;;;5093190;28;20221;-70
2022/10/08 05:20:14;;;;;;;29.83;17.45;;;;;;;;;;5093795;28;20255;-70
2022/10/08 05:22:40;;;;;;;30.17;15.60;;;;;;;;;;5092938;28;20201;-69
2022/10/08 05:25:09;;;;;;;25.85;15.30;;;;;;;;;;5093077;28;20250;-72
2022/10/08 05:27:35;;;;;;;28.52;15.02;;;;;;;;;;5093364;28;20201;-71
2022/10/08 05:30:02;;;;;;;27.70;14.68;;;;;;;;;;5093433;28;20205;-71
2022/10/08 05:32:28;;;;;;;32.65;14.95;;;;;;;;;;5092824;28;20238;-71
2022/10/08 05:34:55;;;;;;;26.73;14.38;;;;;;;;;;5093111;28;20624;-70
2022/10/08 05:37:22;;;;;;;19.98;12.77;;;;;;;;;;5093096;28;20604;-71
2022/10/08 05:39:48;;;;;;;30.50;15.63;;;;;;;;;;5093419;28;20201;-70
2022/10/08 05:42:16;;;;;;;20.88;12.70;;;;;;;;;;5092694;28;20247;-70
2022/10/08 05:44:43;;;;;;;28.20;13.20;;;;;;;;;;5092018;28;20193;-70
2022/10/08 05:47:09;;;;;;;27.85;13.45;;;;;;;;;;5090964;28;20205;-70
2022/10/08 05:49:36;;;;;;;19.90;10.95;;;;;;;;;;5090793;28;20190;-70
2022/10/08 05:52:02;;;;;;;20.15;10.98;;;;;;;;;;5090621;28;20285;-71
2022/10/08 05:54:29;;;;;;;22.85;10.98;;;;;;;;;;5091856;28;20201;-71
2022/10/08 05:56:55;;;;;;;18.60;10.73;;;;;;;;;;5091822;28;20198;-69
2022/10/08 05:59:23;;;;;;;16.70;10.82;;;;;;;;;;5091995;28;20274;-70
2022/10/08 06:01:50;;;;;;;15.20;11.73;;;;;;;;;;5093458;28;20198;-70
2022/10/08 06:04:17;;;;;;;17.98;10.73;;;;;;;;;;5093574;28;20203;-70
2022/10/08 06:06:44;;;;;;;22.63;10.43;;;;;;;;;;5092866;28;20224;-69
2022/10/08 06:09:12;;;;;;;17.35;11.85;;;;;;;;;;5093305;28;20627;-69
2022/10/08 06:11:38;;;;;;;15.30;11.15;;;;;;;;;;5092656;28;20250;-70
2022/10/08 06:14:05;;;;;;;18.38;11.98;;;;;;;;;;5093581;28;20246;-70
2022/10/08 06:16:34;;;;;;;15.23;11.35;;;;;;;;;;5093276;28;20194;-70
2022/10/08 06:19:02;;;;;;;15.95;11.00;;;;;;;;;;5092806;28;20226;-70
2022/10/08 06:21:29;;;;;;;14.98;11.70;;;;;;;;;;5092855;28;20296;-70
2022/10/08 06:23:56;;;;;;;16.55;12.60;;;;;;;;;;5093122;28;20289;-71
2022/10/08 06:26:25;;;;;;;39.33;21.48;;;;;;;;;;5093008;28;20259;-69
2022/10/08 06:28:52;;;;;;;51.53;27.42;;;;;;;;;;5092662;28;20205;-70
2022/10/08 06:31:19;;;;;;;30.42;19.20;;;;;;;;;;5093222;28;20194;-71
2022/10/08 06:33:47;;;;;;;81.75;44.78;;;;;;;;;;5093024;28;20667;-70
2022/10/08 06:36:14;;;;;;;39.90;24.10;;;;;;;;;;5092701;28;20205;-70
2022/10/08 06:38:40;;;;;;;32.13;18.55;;;;;;;;;;5093052;28;20225;-71
2022/10/08 06:41:07;;;;;;;34.25;22.00;;;;;;;;;;5092527;28;20198;-69
2022/10/08 06:43:33;;;;;;;22.98;14.63;;;;;;;;;;5092648;28;20190;-71
2022/10/08 06:46:03;;;;;;;17.10;12.38;;;;;;;;;;5092740;28;20201;-69
2022/10/08 06:48:30;;;;;;;27.67;18.63;;;;;;;;;;5092677;28;20198;-69
2022/10/08 06:51:02;;;;;;;32.55;17.70;;;;;;;;;;5092469;28;20201;-69
2022/10/08 06:53:28;;;;;;;23.00;15.48;;;;;;;;;;5092005;28;20197;-70
2022/10/08 06:55:59;;;;;;;29.52;18.00;;;;;;;;;;5092122;28;20256;-69
2022/10/08 06:58:25;;;;;;;29.90;20.65;;;;;;;;;;5092333;28;20221;-71
2022/10/08 07:01:00;;;;;;;25.83;13.32;;;;;;;;;;5092145;28;20197;-71
2022/10/08 07:03:26;;;;;;;21.15;13.23;;;;;;;;;;5090983;28;20649;-70
2022/10/08 07:05:53;;;;;;;20.63;13.57;;;;;;;;;;5092420;28;20201;-73
2022/10/08 07:08:21;;;;;;;21.20;14.40;;;;;;;;;;5092637;28;20201;-70
2022/10/08 07:10:48;;;;;;;24.15;13.63;;;;;;;;;;5091703;28;20205;-70
2022/10/08 07:13:15;;;;;;;17.30;13.07;;;;;;;;;;5091821;28;20263;-70
2022/10/08 07:15:41;;;;;;;23.60;13.95;;;;;;;;;;5092032;28;20569;-71
2022/10/08 07:18:10;;;;;;;21.05;14.98;;;;;;;;;;5091692;28;20198;-71
2022/10/08 07:20:37;;;;;;;18.42;14.88;;;;;;;;;;5092067;28;20259;-71
2022/10/08 07:23:03;;;;;;;18.98;14.40;;;;;;;;;;5091452;28;20667;-70
2022/10/08 07:25:31;;;;;;;32.00;15.75;;;;;;;;;;5092013;28;20206;-71
2022/10/08 07:27:57;;;;;;;23.38;15.02;;;;;;;;;;5091741;28;20202;-70
2022/10/08 07:30:24;;;;;;;24.15;16.17;;;;;;;;;;5092028;28;20198;-70
2022/10/08 07:32:52;;;;;;;26.50;16.42;;;;;;;;;;5091345;28;20255;-70
2022/10/08 07:35:18;;;;;;;22.63;14.52;;;;;;;;;;5091826;28;20202;-70
2022/10/08 07:37:45;;;;;;;23.70;15.52;;;;;;;;;;5091390;28;20194;-70
2022/10/08 07:40:11;;;;;;;24.23;14.02;;;;;;;;;;5091575;28;20221;-71
2022/10/08 07:42:39;;;;;;;16.52;14.10;;;;;;;;;;5091621;28;20589;-68
2022/10/08 07:45:06;;;;;;;19.58;13.15;;;;;;;;;;5091615;28;20198;-69
2022/10/08 07:47:32;;;;;;;16.45;12.75;;;;;;;;;;5091807;28;20255;-70
2022/10/08 07:49:59;;;;;;;24.73;13.35;;;;;;;;;;5092601;28;20193;-70
2022/10/08 07:52:25;;;;;;;22.70;13.70;;;;;;;;;;5091475;28;20197;-71
2022/10/08 07:54:52;;;;;;;17.65;13.60;;;;;;;;;;5092367;28;20197;-71
2022/10/08 07:57:18;;;;;;;21.60;13.40;;;;;;;;;;5091406;28;20198;-70
2022/10/08 07:59:46;;;;;;;16.92;13.23;;;;;;;;;;5091860;28;20286;-70
2022/10/08 08:02:12;;;;;;;24.73;13.30;;;;;;;;;;5091097;28;20255;-72
2022/10/08 08:04:39;;;;;;;20.92;13.63;;;;;;;;;;5092201;28;20232;-72
2022/10/08 08:07:06;;;;;;;36.78;23.55;;;;;;;;;;5091619;28;20213;-71
2022/10/08 08:09:33;;;;;;;28.48;19.00;;;;;;;;;;5091196;28;20201;-71
2022/10/08 08:11:59;;;;;;;16.17;13.10;;;;;;;;;;5091043;28;20694;-70
2022/10/08 08:14:26;;;;;;;18.15;13.90;;;;;;;;;;5090883;28;20605;-71
2022/10/08 08:16:54;;;;;;;33.88;21.08;;;;;;;;;;5090956;28;20747;-71
2022/10/08 08:19:20;;;;;;;23.45;19.70;;;;;;;;;;5091182;28;20282;-71
2022/10/08 08:21:47;;;;;;;18.50;14.88;;;;;;;;;;5090707;28;20197;-71
2022/10/08 08:24:14;;;;;;;20.92;14.00;;;;;;;;;;5091193;28;20675;-72
2022/10/08 08:26:41;;;;;;;24.77;15.00;;;;;;;;;;5091181;28;20274;-70
2022/10/08 08:29:08;;;;;;;17.50;13.25;;;;;;;;;;5091036;28;20193;-71
2022/10/08 08:31:36;;;;;;;20.92;15.10;;;;;;;;;;5090916;28;20202;-71
2022/10/08 08:34:05;;;;;;;20.50;14.45;;;;;;;;;;5091010;28;20205;-71
2022/10/08 08:36:33;;;;;;;27.50;14.10;;;;;;;;;;5090761;28;20597;-71
2022/10/08 08:39:00;;;;;;;24.23;13.48;;;;;;;;;;5091254;28;20217;-70
2022/10/08 08:41:50;;;;;;;15.40;13.32;;;;;;;;;;5091308;28;20202;-71
2022/10/08 08:44:19;;;;;;;15.85;10.82;;;;;;;;;;5075289;28;20269;-70
2022/10/08 08:46:49;;;;;;;10.73;9.65;;;;;;;;;;5091127;28;20255;-71
2022/10/08 08:49:19;;;;;;;14.98;12.35;;;;;;;;;;5090892;28;20233;-71
2022/10/08 08:51:46;;;;;;;12.50;11.25;;;;;;;;;;5090851;28;20235;-69
2022/10/08 08:54:12;;;;;;;10.32;6.60;;;;;;;;;;5090901;28;20671;-71
2022/10/08 08:56:39;;;;;;;12.07;7.85;;;;;;;;;;5090742;28;20748;-71
2022/10/08 08:59:10;;;;;;;15.43;8.57;;;;;;;;;;5091032;28;20279;-70
2022/10/08 09:01:39;;;;;;;9.18;8.27;;;;;;;;;;5090688;28;20201;-71
2022/10/08 09:04:09;;;;;;;18.45;12.60;;;;;;;;;;5090637;28;20687;-71
2022/10/08 09:06:38;;;;;;;14.13;8.77;;;;;;;;;;5090327;28;20217;-71
2022/10/08 09:09:07;;;;;;;8.52;7.70;;;;;;;;;;5090905;28;20243;-71
2022/10/08 09:11:33;;;;;;;13.35;8.27;;;;;;;;;;5090285;28;20206;-71
2022/10/08 09:14:06;;;;;;;15.25;9.55;;;;;;;;;;5090446;28;20232;-71
2022/10/08 09:16:33;;;;;;;9.38;7.60;;;;;;;;;;5091004;28;20259;-71
2022/10/08 09:19:00;;;;;;;16.10;7.68;;;;;;;;;;5090579;28;20225;-71
2022/10/08 09:21:29;;;;;;;8.70;7.68;;;;;;;;;;5090600;28;20201;-71
2022/10/08 09:23:57;;;;;;;8.85;7.43;;;;;;;;;;5090612;28;20250;-71
2022/10/08 09:26:24;;;;;;;8.13;7.30;;;;;;;;;;5092810;28;20201;-71
2022/10/08 09:28:51;;;;;;;7.00;6.20;;;;;;;;;;5094506;28;20197;-71
2022/10/08 09:31:20;;;;;;;10.85;7.00;;;;;;;;;;5093663;28;20290;-71
2022/10/08 09:33:53;;;;;;;11.23;10.02;;;;;;;;;;5093771;28;20284;-71
2022/10/08 09:36:28;;;;;;;6.03;5.55;;;;;;;;;;5094107;28;20205;-71
2022/10/08 09:38:57;;;;;;;5.38;5.05;;;;;;;;;;5093715;28;20647;-70
2022/10/08 09:41:27;;;;;;;6.30;5.70;;;;;;;;;;5094070;28;20208;-69
2022/10/08 09:44:05;;;;;;;6.22;4.30;;;;;;;;;;5094038;28;20202;-69
2022/10/08 09:46:32;;;;;;;12.98;8.68;;;;;;;;;;5093981;28;20262;-68
2022/10/08 09:49:19;;;;;;;6.35;5.85;;;;;;;;;;5093923;28;20201;-68
2022/10/08 09:51:46;;;;;;;6.00;5.38;;;;;;;;;;5093390;28;20247;-68
2022/10/08 09:54:16;;;;;;;5.65;4.63;;;;;;;;;;5093818;28;20197;-68
2022/10/08 09:56:51;;;;;;;5.18;4.70;;;;;;;;;;5093883;28;20258;-69
2022/10/08 09:59:18;;;;;;;4.47;4.07;;;;;;;;;;5093713;28;20228;-71
2022/10/08 10:01:45;;;;;;;5.32;4.53;;;;;;;;;;5093319;28;20266;-73
2022/10/08 10:04:17;;;;;;;4.72;4.43;;;;;;;;;;5093250;28;20194;-69
2022/10/08 10:06:47;;;;;;;4.72;4.28;;;;;;;;;;5093225;28;20603;-69
2022/10/08 10:09:22;;;;;;;6.78;6.18;;;;;;;;;;5093601;28;20198;-69
2022/10/08 10:11:51;;;;;;;10.13;6.00;;;;;;;;;;5093381;28;20259;-69
2022/10/08 10:14:20;;;;;;;9.25;5.45;;;;;;;;;;5093074;28;20623;-69
2022/10/08 10:16:49;;;;;;;6.00;5.50;;;;;;;;;;5092949;28;20243;-68
2022/10/08 10:19:18;;;;;;;5.68;5.10;;;;;;;;;;5093003;28;20669;-71
2022/10/08 10:21:49;;;;;;;5.78;5.07;;;;;;;;;;5092880;28;20575;-66
2022/10/08 10:24:37;;;;;;;5.10;4.53;;;;;;;;;;5092944;28;20205;-68
2022/10/08 10:27:06;;;;;;;5.30;4.70;;;;;;;;;;5087491;28;20242;-71
2022/10/08 10:29:38;;;;;;;9.32;4.85;;;;;;;;;;5093293;28;20193;-69
2022/10/08 10:32:07;;;;;;;5.53;4.72;;;;;;;;;;5092600;28;20291;-69
2022/10/08 10:34:36;;;;;;;4.50;4.10;;;;;;;;;;5093047;28;20209;-69
2022/10/08 10:37:19;;;;;;;4.38;3.97;;;;;;;;;;5092165;28;20671;-68
2022/10/08 10:39:49;;;;;;;4.35;3.92;;;;;;;;;;5092800;28;20282;-69
2022/10/08 10:42:19;;;;;;;5.20;4.70;;;;;;;;;;5092218;28;20198;-69
2022/10/08 10:44:51;;;;;;;4.65;4.22;;;;;;;;;;5092567;28;20255;-68
2022/10/08 10:47:18;;;;;;;4.97;4.13;;;;;;;;;;5092616;28;20197;-68
2022/10/08 10:49:44;;;;;;;5.28;4.40;;;;;;;;;;5092886;28;20186;-69
2022/10/08 10:52:21;;;;;;;6.18;4.45;;;;;;;;;;5092331;28;20258;-68
2022/10/08 10:54:55;;;;;;;5.68;4.63;;;;;;;;;;5091125;28;20274;-69
2022/10/08 10:57:30;;;;;;;5.53;3.88;;;;;;;;;;5090864;28;20228;-68
2022/10/08 11:00:01;;;;;;;4.55;4.28;;;;;;;;;;5090666;28;20745;-68
2022/10/08 11:02:31;;;;;;;6.10;3.80;;;;;;;;;;5090737;28;20198;-69
2022/10/08 11:05:02;;;;;;;3.90;3.60;;;;;;;;;;5090973;28;20197;-69
2022/10/08 11:07:47;;;;;;;5.25;3.42;;;;;;;;;;5091393;28;20267;-68
2022/10/08 11:10:19;;;;;;;7.00;3.45;;;;;;;;;;5092239;28;20745;-69
2022/10/08 11:12:52;;;;;;;3.30;3.10;;;;;;;;;;5092181;28;20205;-70
2022/10/08 11:15:22;;;;;;;3.75;3.42;;;;;;;;;;5094458;28;20252;-70
2022/10/08 11:18:03;;;;;;;4.50;3.92;;;;;;;21.19;nan;95506.63;5094195;28;20300;-68
2022/10/08 11:20:48;;;;;;;4.15;3.90;;;;;;;;;;5091910;28;20228;-68
2022/10/08 11:23:22;;;;;;;4.00;3.50;;;;;;;;;;5090895;28;20244;-68
2022/10/08 11:25:54;;;;;;;4.07;3.78;;;;;;;;;;5089848;28;20595;-68
2022/10/08 11:28:29;;;;;;;6.00;3.00;;;;;;;;;;5090706;28;20194;-68
2022/10/08 11:31:01;;;;;;;3.70;3.40;;;;;;;;;;5090555;28;20197;-68
2022/10/08 11:33:28;;;;;;;8.43;4.22;;;;;;;;;;5090573;28;20278;-69
2022/10/08 11:36:04;;;;;;;4.38;4.07;;;;;;;;;;5092414;28;20197;-70
2022/10/08 11:38:34;;;;;;;5.38;3.35;;;;;;;;;;5090097;28;20194;-68
2022/10/08 11:41:06;;;;;;;6.88;3.90;;;;;;;;;;5091023;28;20225;-68
2022/10/08 11:43:36;;;;;;;4.47;4.18;;;;;;;;;;5089605;28;20241;-69
2022/10/08 11:46:13;;;;;;;4.28;3.95;;;;;;;;;;5090917;28;20193;-69
2022/10/08 11:48:40;;;;;;;4.40;4.07;;;;;;;;;;5090817;28;20201;-69
2022/10/08 11:51:24;;;;;;;4.25;3.90;;;;;;;;;;5090383;28;20247;-68
2022/10/08 11:54:17;;;;;;;57.65;33.15;;;;;;;21.10;nan;95491.75;5090429;28;20197;-71
2022/10/08 11:56:45;;;;;;;11.38;9.05;;;;;;;;;;5087939;28;20198;-70
2022/10/08 11:59:24;;;;;;;4.18;3.88;;;;;;;;;;5089860;28;20202;-69
2022/10/08 12:01:51;;;;;;;4.63;3.58;;;;;;;;;;5089949;28;20209;-70
2022/10/08 12:04:19;;;;;;;3.90;3.60;;;;;;;;;;5089795;28;20255;-69
2022/10/08 12:06:46;;;;;;;4.68;3.58;;;;;;;;;;5089704;28;20241;-68
2022/10/08 12:09:21;;;;;;;5.68;3.15;;;;;;;;;;5090230;28;20251;-69
2022/10/08 12:11:48;;;;;;;4.15;3.05;;;;;;;;;;5089822;28;20201;-70
2022/10/08 12:14:43;;;;;;;3.20;3.00;;;;;;;;;;5089882;28;20262;-69
2022/10/08 12:17:10;;;;;;;6.55;4.07;;;;;;;;;;5090166;28;20201;-68
2022/10/08 12:20:06;;;;;;;3.78;3.40;;;;;;;;;;5089480;28;20667;-68
2022/10/08 12:22:43;;;;;;;7.57;3.35;;;;;;;;;;5090267;28;20202;-70
2022/10/08 12:25:24;;;;;;;5.88;3.58;;;;;;;;;;5090700;28;20671;-68
2022/10/08 12:27:50;;;;;;;3.70;3.40;;;;;;;;;;5090719;28;20622;-69
2022/10/08 12:30:18;;;;;;;3.47;3.05;;;;;;;;;;5090933;28;20262;-67
2022/10/08 12:32:52;;;;;;;3.25;2.95;;;;;;;;;;5090736;28;20233;-68
2022/10/08 12:35:21;;;;;;;3.85;3.55;;;;;;;;;;5090670;28;20194;-69
2022/10/08 12:37:54;;;;;;;5.97;4.07;;;;;;;;;;5090462;28;20625;-68
2022/10/08 12:40:30;;;;;;;3.33;3.13;;;;;;;;;;5090673;28;20217;-69
2022/10/08 12:43:02;;;;;;;6.72;6.13;;;;;;;;;;5090844;28;20219;-69
2022/10/08 12:45:34;;;;;;;3.70;3.40;;;;;;;;;;5088745;28;20255;-68
2022/10/08 12:48:04;;;;;;;3.60;3.40;;;;;;;;;;5089373;28;20194;-68
2022/10/08 12:50:42;;;;;;;4.63;4.32;;;;;;;;;;5088836;28;20756;-70
2022/10/08 12:53:12;;;;;;;3.38;3.15;;;;;;;;;;5088870;28;20621;-68
2022/10/08 12:55:44;;;;;;;6.28;5.65;;;;;;;;;;5088708;28;20649;-68
2022/10/08 12:58:15;;;;;;;11.60;6.85;;;;;;;;;;5089251;28;20194;-69
2022/10/08 13:00:43;;;;;;;15.40;13.77;;;;;;;;;;5093546;28;20222;-68
2022/10/08 13:03:13;;;;;;;4.85;4.40;;;;;;;;;;5094119;28;20202;-67
2022/10/08 13:05:40;;;;;;;10.77;9.65;;;;;;;;;;5094322;28;20750;-69
2022/10/08 13:08:25;;;;;;;6.60;4.53;;;;;;;;;;5093513;28;20217;-67
2022/10/08 13:10:52;;;;;;;7.68;5.28;;;;;;;;;;5094430;28;20197;-68
2022/10/08 13:13:32;;;;;;;10.05;6.38;;;;;;;;;;5094547;28;20198;-69
2022/10/08 13:16:00;;;;;;;10.30;8.43;;;;;;;;;;5093947;28;20205;-68
2022/10/08 13:18:28;;;;;;;4.18;3.42;;;;;;;;;;5094178;28;20561;-68
2022/10/08 13:20:55;;;;;;;5.43;3.50;;;;;;;;;;5094044;28;20275;-69
2022/10/08 13:23:25;;;;;;;2.90;2.70;;;;;;;;;;5094361;28;20608;-68
2022/10/08 13:25:51;;;;;;;4.50;2.80;;;;;;;;;;5094590;28;20198;-67
2022/10/08 13:28:21;;;;;;;5.55;3.28;;;;;;;;;;5091782;28;20263;-68
2022/10/08 13:30:48;;;;;;;3.10;2.90;;;;;;;;;;5092154;28;20198;-68
2022/10/08 13:33:18;;;;;;;4.85;3.83;;;;;;;;;;5092853;28;20229;-68
2022/10/08 13:35:50;;;;;;;2.95;2.80;;;;;;;;;;5094112;28;20198;-68
2022/10/08 13:38:20;;;;;;;23.27;16.75;;;;;;;;;;5093862;28;20229;-69
2022/10/08 13:40:50;;;;;;;31.35;17.80;;;;;;;;;;5094090;28;20290;-68
2022/10/08 13:43:17;;;;;;;4.28;3.97;;;;;;;;;;5093620;28;20232;-69
2022/10/08 13:45:43;;;;;;;7.43;3.97;;;;;;;;;;5093805;28;20277;-69
2022/10/08 13:48:10;;;;;;;5.10;3.85;;;;;;;;;;5093652;28;20685;-68
2022/10/08 13:50:42;;;;;;;8.05;5.28;;;;;;;;;;5093299;28;20198;-68
2022/10/08 13:53:09;;;;;;;9.55;6.93;;;;;;;;;;5093522;28;20792;-67
2022/10/08 13:55:36;;;;;;;8.80;5.40;;;;;;;;;;5093601;28;20198;-66
2022/10/08 13:58:04;;;;;;;9.30;7.10;;;;;;;;;;5093115;28;20197;-69
2022/10/08 14:00:31;;;;;;;3.38;2.97;;;;;;;;;;5093456;28;20726;-69
2022/10/08 14:02:58;;;;;;;3.28;2.88;;;;;;;;;;5093357;28;20202;-70
2022/10/08 14:05:24;;;;;;;3.05;2.85;;;;;;;;;;5093403;28;20255;-69
2022/10/08 14:07:54;;;;;;;5.18;2.90;;;;;;;;;;5093065;28;20221;-67
2022/10/08 14:10:21;;;;;;;3.05;2.80;;;;;;;;;;5093522;28;20193;-70
2022/10/08 14:12:47;;;;;;;3.50;3.20;;;;;;;;;;5092418;28;20247;-68
2022/10/08 14:15:18;;;;;;;5.47;4.25;;;;;;;;;;5093683;28;20250;-69
2022/10/08 14:17:45;;;;;;;3.95;3.55;;;;;;;;;;5092987;28;20233;-68
2022/10/08 14:20:11;;;;;;;6.82;4.70;;;;;;;;;;5093123;28;20224;-71
2022/10/08 14:22:38;;;;;;;6.97;3.88;;;;;;;;;;5092805;28;20197;-68
2022/10/08 14:25:12;;;;;;;4.25;3.67;;;;;;;;;;5093091;28;20642;-68
2022/10/08 14:27:39;;;;;;;3.20;2.90;;;;;;;;;;5093094;28;20201;-71
2022/10/08 14:30:06;;;;;;;2.85;2.65;;;;;;;;;;5092965;28;20322;-69
2022/10/08 14:32:32;;;;;;;4.05;3.75;;;;;;;;;;5090875;28;20251;-68
2022/10/08 14:34:59;;;;;;;3.90;3.20;;;;;;;;;;5090843;28;20197;-70
2022/10/08 14:37:25;;;;;;;4.90;3.13;;;;;;;;;;5090747;28;20618;-68
2022/10/08 14:39:52;;;;;;;4.88;3.28;;;;;;;;;;5091018;28;20190;-69